createdAt,value
2023-05-21T00:02:19.854Z,16.85
2023-05-21T00:04:46.989Z,16.83
2023-05-21T00:07:15.210Z,16.82
2023-05-21T00:09:41.776Z,16.66
2023-05-21T00:12:09.091Z,16.75
2023-05-21T00:14:36.015Z,16.55
2023-05-21T00:17:02.632Z,16.55
2023-05-21T00:19:29.166Z,16.71
2023-05-21T00:21:56.030Z,16.61
2023-05-21T00:24:22.507Z,16.77
2023-05-21T00:26:48.933Z,16.80
2023-05-21T00:29:15.352Z,16.77
2023-05-21T00:31:41.947Z,16.70
2023-05-21T00:34:08.555Z,16.70
2023-05-21T00:36:35.035Z,15.72
2023-05-21T00:39:02.424Z,16.73
2023-05-21T00:41:30.260Z,16.73
2023-05-21T00:43:57.212Z,16.70
2023-05-21T00:46:24.133Z,16.62
2023-05-21T00:48:51.056Z,16.58
2023-05-21T00:51:18.677Z,16.70
2023-05-21T00:53:46.639Z,16.57
2023-05-21T00:56:13.603Z,16.56
2023-05-21T00:58:40.979Z,16.67
2023-05-21T01:01:13.541Z,16.52
2023-05-21T01:03:41.076Z,16.66
2023-05-21T01:06:09.427Z,16.63
2023-05-21T01:08:37.678Z,16.62
2023-05-21T01:11:05.705Z,16.58
2023-05-21T01:13:34.622Z,16.63
2023-05-21T01:16:02.938Z,16.63
2023-05-21T01:18:29.855Z,16.63
2023-05-21T01:20:56.362Z,16.56
2023-05-21T01:23:22.917Z,16.54
2023-05-21T01:25:49.512Z,16.47
2023-05-21T01:28:15.985Z,16.52
2023-05-21T01:30:43.853Z,16.55
2023-05-21T01:33:24.290Z,16.55
2023-05-21T01:35:56.328Z,16.51
2023-05-21T01:39:05.091Z,16.54
2023-05-21T01:41:36.968Z,16.46
2023-05-21T01:44:07.020Z,16.38
2023-05-21T01:46:36.163Z,16.52
2023-05-21T01:49:04.949Z,16.52
2023-05-21T01:51:32.008Z,16.43
2023-05-21T01:53:58.567Z,16.42
2023-05-21T01:56:25.808Z,16.32
2023-05-21T01:58:52.688Z,16.35
2023-05-21T02:01:20.260Z,16.20
2023-05-21T02:03:46.844Z,16.41
2023-05-21T02:06:13.310Z,16.41
2023-05-21T02:08:40.323Z,16.33
2023-05-21T02:11:06.924Z,16.34
2023-05-21T02:13:33.821Z,16.34
2023-05-21T02:16:01.537Z,16.36
2023-05-21T02:18:29.246Z,16.39
2023-05-21T02:20:55.844Z,16.38
2023-05-21T02:23:22.312Z,16.38
2023-05-21T02:25:48.899Z,16.38
2023-05-21T02:28:15.874Z,16.34
2023-05-21T02:30:42.338Z,16.34
2023-05-21T02:33:09.210Z,16.23
2023-05-21T02:35:36.042Z,16.32
2023-05-21T02:38:03.060Z,16.29
2023-05-21T02:40:29.575Z,16.26
2023-05-21T02:42:56.043Z,16.24
2023-05-21T02:45:22.476Z,16.22
2023-05-21T02:47:49.083Z,15.99
2023-05-21T02:50:15.620Z,16.28
2023-05-21T02:52:42.221Z,16.15
2023-05-21T02:55:09.596Z,16.24
2023-05-21T02:57:36.006Z,16.24
2023-05-21T03:00:03.723Z,16.24
2023-05-21T03:02:30.327Z,16.12
2023-05-21T03:04:56.854Z,16.19
2023-05-21T03:07:24.363Z,16.16
2023-05-21T03:09:50.858Z,16.17
2023-05-21T03:12:17.370Z,16.11
2023-05-21T03:14:44.248Z,16.12
2023-05-21T03:17:13.936Z,16.11
2023-05-21T03:19:41.776Z,16.08
2023-05-21T03:22:08.889Z,16.06
2023-05-21T03:24:36.694Z,15.86
2023-05-21T03:27:05.930Z,16.04
2023-05-21T03:29:32.628Z,16.00
2023-05-21T03:31:59.360Z,15.99
2023-05-21T03:34:25.817Z,16.04
2023-05-21T03:36:52.322Z,16.03
2023-05-21T03:39:18.921Z,16.04
2023-05-21T03:41:45.415Z,15.97
2023-05-21T03:44:11.971Z,15.97
2023-05-21T03:46:38.512Z,15.95
2023-05-21T03:49:05.037Z,15.95
2023-05-21T03:51:31.745Z,15.80
2023-05-21T03:53:59.256Z,15.93
2023-05-21T03:56:26.292Z,15.89
2023-05-21T03:58:53.062Z,15.89
2023-05-21T04:01:19.707Z,15.88
2023-05-21T04:03:46.370Z,15.87
2023-05-21T04:06:12.923Z,15.82
2023-05-21T04:08:39.672Z,15.87
2023-05-21T04:11:06.097Z,15.81
2023-05-21T04:13:32.736Z,15.87
2023-05-21T04:15:59.753Z,15.76
2023-05-21T04:18:26.773Z,15.80
2023-05-21T04:20:53.820Z,15.79
2023-05-21T04:23:23.370Z,15.81
2023-05-21T04:25:50.794Z,15.72
2023-05-21T04:28:20.492Z,15.73
2023-05-21T04:30:49.983Z,15.77
2023-05-21T04:33:20.150Z,15.77
2023-05-21T04:35:50.121Z,15.75
2023-05-21T04:38:19.578Z,15.68
2023-05-21T04:40:52.302Z,15.74
2023-05-21T04:43:25.561Z,15.73
2023-05-21T04:45:54.692Z,15.72
2023-05-21T04:48:24.687Z,15.71
2023-05-21T04:50:52.079Z,15.73
2023-05-21T04:53:18.550Z,15.74
2023-05-21T04:55:45.060Z,15.71
2023-05-21T04:58:11.561Z,15.60
2023-05-21T05:00:39.241Z,15.75
2023-05-21T05:03:05.816Z,15.76
2023-05-21T05:05:32.318Z,15.80
2023-05-21T05:07:58.776Z,15.76
2023-05-21T05:10:25.204Z,15.65
2023-05-21T05:12:51.625Z,15.79
2023-05-21T05:15:18.106Z,15.81
2023-05-21T05:17:44.750Z,15.83
2023-05-21T05:20:11.598Z,15.85
2023-05-21T05:22:38.129Z,15.80
2023-05-21T05:25:05.306Z,15.60
2023-05-21T05:27:31.740Z,15.72
2023-05-21T05:29:58.169Z,15.68
2023-05-21T05:32:24.714Z,15.70
2023-05-21T05:34:51.379Z,15.72
2023-05-21T05:37:17.932Z,15.69
2023-05-21T05:39:44.365Z,15.76
2023-05-21T05:42:10.815Z,15.78
2023-05-21T05:44:37.304Z,15.66
2023-05-21T05:47:03.927Z,15.75
2023-05-21T05:49:30.394Z,15.85
2023-05-21T05:51:56.844Z,15.93
2023-05-21T05:54:23.267Z,15.88
2023-05-21T05:56:49.707Z,15.91
2023-05-21T05:59:16.444Z,15.93
2023-05-21T06:01:42.864Z,15.91
2023-05-21T06:04:09.330Z,15.93
2023-05-21T06:06:36.735Z,15.88
2023-05-21T06:09:03.265Z,15.98
2023-05-21T06:11:29.699Z,15.95
2023-05-21T06:13:56.709Z,16.06
2023-05-21T06:16:23.254Z,16.08
2023-05-21T06:18:49.758Z,16.07
2023-05-21T06:21:16.479Z,16.08
2023-05-21T06:23:42.924Z,16.00
2023-05-21T06:26:09.370Z,16.01
2023-05-21T06:28:36.270Z,16.20
2023-05-21T06:31:02.766Z,16.23
2023-05-21T06:33:29.347Z,16.31
2023-05-21T06:35:55.879Z,16.38
2023-05-21T06:38:22.367Z,16.48
2023-05-21T06:40:49.486Z,16.43
2023-05-21T06:43:16.024Z,16.61
2023-05-21T06:45:42.509Z,16.68
2023-05-21T06:48:09.146Z,16.49
2023-05-21T06:50:35.690Z,16.75
2023-05-21T06:53:02.176Z,16.79
2023-05-21T06:55:28.672Z,16.81
2023-05-21T06:57:55.094Z,16.88
2023-05-21T07:00:21.775Z,16.96
2023-05-21T07:02:48.291Z,17.09
2023-05-21T07:05:14.760Z,17.21
2023-05-21T07:07:41.187Z,17.27
2023-05-21T07:10:08.450Z,17.31
2023-05-21T07:12:35.000Z,17.29
2023-05-21T07:15:01.479Z,17.32
2023-05-21T07:17:27.943Z,17.31
2023-05-21T07:19:54.405Z,17.33
2023-05-21T07:22:20.994Z,17.37
2023-05-21T07:24:47.473Z,17.51
2023-05-21T07:27:24.803Z,17.61
2023-05-21T07:29:52.504Z,17.68
2023-05-21T07:32:18.952Z,17.65
2023-05-21T07:34:45.380Z,17.66
2023-05-21T07:37:11.817Z,17.66
2023-05-21T07:39:38.254Z,17.62
2023-05-21T07:42:04.908Z,17.60
2023-05-21T07:44:31.939Z,17.68
2023-05-21T07:46:58.378Z,17.75
2023-05-21T07:49:24.814Z,17.84
2023-05-21T07:51:51.266Z,17.98
2023-05-21T07:54:18.207Z,18.01
2023-05-21T07:56:44.633Z,18.06
2023-05-21T07:59:13.323Z,18.07
2023-05-21T08:01:41.055Z,17.92
2023-05-21T08:04:07.891Z,18.28
2023-05-21T08:06:34.668Z,18.39
2023-05-21T08:09:04.655Z,18.38
2023-05-21T08:11:31.080Z,17.99
2023-05-21T08:13:57.542Z,18.48
2023-05-21T08:16:24.208Z,18.59
2023-05-21T08:18:50.894Z,18.63
2023-05-21T08:21:17.448Z,18.61
2023-05-21T08:23:44.408Z,18.58
2023-05-21T08:26:11.057Z,18.63
2023-05-21T08:28:40.501Z,18.90
2023-05-21T08:31:06.997Z,18.84
2023-05-21T08:33:37.142Z,18.78
2023-05-21T08:36:07.911Z,18.81
2023-05-21T08:38:34.618Z,18.92
2023-05-21T08:41:01.209Z,18.92
2023-05-21T08:43:28.648Z,18.94
2023-05-21T08:45:57.274Z,18.91
2023-05-21T08:48:24.254Z,18.89
2023-05-21T08:50:52.446Z,18.73
2023-05-21T08:53:27.294Z,18.97
2023-05-21T08:55:56.118Z,19.02
2023-05-21T08:58:23.136Z,18.89
2023-05-21T09:00:49.865Z,18.96
2023-05-21T09:03:16.728Z,18.78
2023-05-21T09:05:45.081Z,18.98
2023-05-21T09:08:18.354Z,19.00
2023-05-21T09:10:52.276Z,18.98
2023-05-21T09:13:20.190Z,19.08
2023-05-21T09:15:47.842Z,19.08
2023-05-21T09:18:14.897Z,18.91
2023-05-21T09:20:41.604Z,19.15
2023-05-21T09:23:17.038Z,18.98
2023-05-21T09:25:47.985Z,19.08
2023-05-21T09:28:16.104Z,19.04
2023-05-21T09:30:52.219Z,19.24
2023-05-21T09:33:26.606Z,19.34
2023-05-21T09:35:53.195Z,19.27
2023-05-21T09:38:22.967Z,19.53
2023-05-21T09:40:49.456Z,19.62
2023-05-21T09:43:16.378Z,19.61
2023-05-21T09:45:53.703Z,19.67
2023-05-21T09:48:40.779Z,19.70
2023-05-21T09:51:18.045Z,19.76
2023-05-21T09:53:54.662Z,19.87
2023-05-21T09:56:23.594Z,19.81
2023-05-21T09:59:00.279Z,19.84
2023-05-21T10:01:27.419Z,19.71
2023-05-21T10:03:58.589Z,19.65
2023-05-21T10:06:28.365Z,19.53
2023-05-21T10:08:57.070Z,19.72
2023-05-21T10:11:27.226Z,19.81
2023-05-21T10:14:10.489Z,19.79
2023-05-21T10:16:37.467Z,19.71
2023-05-21T10:19:10.924Z,19.41
2023-05-21T10:21:39.713Z,19.71
2023-05-21T10:24:07.394Z,19.70
2023-05-21T10:26:34.507Z,19.90
2023-05-21T10:29:02.686Z,19.88
2023-05-21T10:31:29.603Z,19.85
2023-05-21T10:33:56.250Z,19.73
2023-05-21T10:36:24.639Z,19.90
2023-05-21T10:38:51.460Z,20.09
2023-05-21T10:41:20.011Z,19.91
2023-05-21T10:43:59.320Z,20.30
2023-05-21T10:46:47.171Z,20.42
2023-05-21T10:49:38.482Z,20.18
2023-05-21T10:52:51.418Z,20.56
2023-05-21T10:55:36.488Z,20.57
2023-05-21T10:58:14.948Z,20.88
2023-05-21T11:00:42.753Z,20.87
2023-05-21T11:03:12.882Z,20.87
2023-05-21T11:05:52.697Z,20.88
2023-05-21T11:08:27.445Z,21.03
2023-05-21T11:10:55.367Z,20.93
2023-05-21T11:13:22.061Z,20.98
2023-05-21T11:15:57.739Z,21.02
2023-05-21T11:18:47.113Z,21.10
2023-05-21T11:21:14.988Z,21.28
2023-05-21T11:23:50.872Z,21.37
2023-05-21T11:26:26.367Z,21.51
2023-05-21T11:29:05.046Z,21.60
2023-05-21T11:31:39.578Z,21.57
2023-05-21T11:34:12.425Z,21.61
2023-05-21T11:36:45.588Z,21.59
2023-05-21T11:39:15.705Z,21.72
2023-05-21T11:41:52.440Z,21.65
2023-05-21T11:44:21.614Z,21.52
2023-05-21T11:46:48.841Z,21.72
2023-05-21T11:49:16.025Z,21.59
2023-05-21T11:51:42.933Z,21.96
2023-05-21T11:54:10.320Z,22.01
2023-05-21T11:56:41.767Z,22.11
2023-05-21T11:59:15.499Z,21.98
2023-05-21T12:01:44.181Z,22.07
2023-05-21T12:04:12.179Z,22.07
2023-05-21T12:06:42.547Z,22.22
2023-05-21T12:09:10.311Z,22.27
2023-05-21T12:11:41.126Z,22.48
2023-05-21T12:14:09.430Z,22.30
2023-05-21T12:16:36.312Z,22.43
2023-05-21T12:19:03.927Z,22.43
2023-05-21T12:21:31.429Z,22.24
2023-05-21T12:23:58.319Z,21.97
2023-05-21T12:26:25.831Z,21.70
2023-05-21T12:28:56.102Z,21.65
2023-05-21T12:31:23.580Z,21.68
2023-05-21T12:33:53.685Z,21.83
2023-05-21T12:36:26.859Z,22.14
2023-05-21T12:38:53.667Z,22.25
2023-05-21T12:41:22.081Z,22.20
2023-05-21T12:43:49.312Z,21.99
2023-05-21T12:46:19.767Z,22.04
2023-05-21T12:48:58.233Z,22.26
2023-05-21T12:51:24.829Z,21.98
2023-05-21T12:53:51.552Z,22.02
2023-05-21T12:56:18.056Z,21.34
2023-05-21T12:58:50.233Z,21.80
2023-05-21T13:01:16.709Z,22.18
2023-05-21T13:03:44.126Z,22.38
2023-05-21T13:06:10.787Z,22.70
2023-05-21T13:08:37.756Z,22.55
2023-05-21T13:11:04.820Z,22.55
2023-05-21T13:13:31.540Z,22.96
2023-05-21T13:16:00.561Z,22.83
2023-05-21T13:18:27.138Z,22.89
2023-05-21T13:20:53.788Z,23.10
2023-05-21T13:23:20.495Z,23.48
2023-05-21T13:25:46.917Z,23.51
2023-05-21T13:28:15.277Z,23.70
2023-05-21T13:30:41.772Z,23.77
2023-05-21T13:33:08.553Z,23.71
2023-05-21T13:35:35.284Z,23.77
2023-05-21T13:38:02.101Z,23.72
2023-05-21T13:40:28.574Z,23.75
2023-05-21T13:42:55.068Z,23.69
2023-05-21T13:45:21.757Z,23.79
2023-05-21T13:47:48.450Z,24.14
2023-05-21T13:50:16.028Z,24.51
2023-05-21T13:52:42.764Z,24.76
2023-05-21T13:55:09.961Z,24.51
2023-05-21T13:57:36.478Z,24.32
2023-05-21T14:00:04.655Z,24.59
2023-05-21T14:02:31.150Z,24.15
2023-05-21T14:04:57.677Z,24.16
2023-05-21T14:07:24.144Z,23.98
2023-05-21T14:09:50.602Z,23.93
2023-05-21T14:12:17.210Z,23.66
2023-05-21T14:14:43.961Z,23.84
2023-05-21T14:17:10.493Z,23.82
2023-05-21T14:19:36.956Z,23.92
2023-05-21T14:22:03.449Z,24.22
2023-05-21T14:24:29.901Z,24.14
2023-05-21T14:26:56.393Z,24.16
2023-05-21T14:29:22.878Z,24.18
2023-05-21T14:31:49.454Z,24.04
2023-05-21T14:34:15.956Z,23.76
2023-05-21T14:36:42.386Z,23.64
2023-05-21T14:39:08.806Z,23.66
2023-05-21T14:41:39.526Z,23.42
2023-05-21T14:44:05.975Z,23.24
2023-05-21T14:46:32.889Z,23.63
2023-05-21T14:49:00.529Z,23.60
2023-05-21T14:51:27.073Z,23.26
2023-05-21T14:53:53.611Z,23.13
2023-05-21T14:56:21.877Z,23.07
2023-05-21T14:58:48.450Z,22.84
2023-05-21T15:01:15.062Z,22.46
2023-05-21T15:03:41.691Z,22.35
2023-05-21T15:06:08.458Z,22.35
2023-05-21T15:08:34.964Z,22.35
2023-05-21T15:11:01.538Z,22.08
2023-05-21T15:13:27.954Z,22.21
2023-05-21T15:15:54.517Z,22.10
2023-05-21T15:18:21.003Z,22.04
2023-05-21T15:20:47.514Z,22.09
2023-05-21T15:23:17.477Z,22.11
2023-05-21T15:25:45.065Z,21.91
2023-05-21T15:28:14.530Z,21.99
2023-05-21T15:30:40.954Z,22.02
2023-05-21T15:33:07.513Z,22.12
2023-05-21T15:35:36.359Z,21.94
2023-05-21T15:38:03.316Z,21.94
2023-05-21T15:40:29.770Z,22.03
2023-05-21T15:42:56.262Z,22.04
2023-05-21T15:45:22.725Z,22.14
2023-05-21T15:47:49.193Z,22.45
2023-05-21T15:50:15.793Z,22.71
2023-05-21T15:52:42.699Z,22.67
2023-05-21T15:55:09.644Z,23.00
2023-05-21T15:57:36.112Z,23.08
2023-05-21T16:00:02.650Z,22.97
2023-05-21T16:02:29.143Z,22.92
2023-05-21T16:04:55.654Z,23.00
2023-05-21T16:07:23.502Z,22.90
2023-05-21T16:09:50.056Z,22.74
2023-05-21T16:12:16.659Z,22.98
2023-05-21T16:14:43.150Z,22.96
2023-05-21T16:17:09.736Z,22.92
2023-05-21T16:19:36.473Z,22.92
2023-05-21T16:22:03.030Z,22.83
2023-05-21T16:24:29.505Z,22.63
2023-05-21T16:26:56.015Z,22.30
2023-05-21T16:29:22.485Z,22.48
2023-05-21T16:31:49.068Z,22.39
2023-05-21T16:34:15.788Z,22.40
2023-05-21T16:36:42.266Z,22.62
2023-05-21T16:39:08.772Z,22.58
2023-05-21T16:41:35.476Z,22.27
2023-05-21T16:44:01.988Z,22.33
2023-05-21T16:46:28.496Z,22.77
2023-05-21T16:48:54.997Z,22.58
2023-05-21T16:51:21.477Z,22.25
2023-05-21T16:53:48.151Z,22.46
2023-05-21T16:56:14.599Z,22.31
2023-05-21T16:58:41.038Z,22.18
2023-05-21T17:01:07.530Z,22.04
2023-05-21T17:03:34.192Z,22.10
2023-05-21T17:06:00.901Z,21.96
2023-05-21T17:08:27.362Z,21.67
2023-05-21T17:10:55.420Z,21.26
2023-05-21T17:13:23.027Z,21.35
2023-05-21T17:15:51.160Z,21.19
2023-05-21T17:18:17.999Z,21.36
2023-05-21T17:20:44.782Z,21.36
2023-05-21T17:23:12.434Z,21.06
2023-05-21T17:25:39.737Z,20.97
2023-05-21T17:28:06.854Z,21.39
2023-05-21T17:30:33.445Z,21.26
2023-05-21T17:33:02.173Z,21.15
2023-05-21T17:35:28.912Z,21.21
2023-05-21T17:37:55.389Z,21.15
2023-05-21T17:40:24.277Z,20.96
2023-05-21T17:42:51.895Z,21.09
2023-05-21T17:45:18.611Z,20.98
2023-05-21T17:47:45.072Z,20.86
2023-05-21T17:50:11.510Z,20.71
2023-05-21T17:52:37.972Z,20.49
2023-05-21T17:55:05.192Z,20.18
2023-05-21T17:57:31.639Z,20.37
2023-05-21T17:59:58.128Z,20.29
2023-05-21T18:02:25.387Z,20.39
2023-05-21T18:04:51.888Z,20.32
2023-05-21T18:07:18.293Z,20.37
2023-05-21T18:09:45.077Z,20.19
2023-05-21T18:12:11.605Z,20.16
2023-05-21T18:14:38.086Z,20.15
2023-05-21T18:17:05.752Z,20.14
2023-05-21T18:19:32.343Z,20.13
2023-05-21T18:21:58.826Z,19.90
2023-05-21T18:24:25.603Z,19.97
2023-05-21T18:26:52.154Z,19.99
2023-05-21T18:29:18.638Z,20.02
2023-05-21T18:31:45.481Z,19.89
2023-05-21T18:34:12.212Z,19.88
2023-05-21T18:36:38.725Z,19.91
2023-05-21T18:39:06.810Z,19.88
2023-05-21T18:41:33.535Z,19.81
2023-05-21T18:44:01.684Z,19.30
2023-05-21T18:46:28.975Z,19.74
2023-05-21T18:48:56.050Z,19.52
2023-05-21T18:51:22.685Z,19.39
2023-05-21T18:53:49.140Z,19.48
2023-05-21T18:56:15.684Z,19.62
2023-05-21T18:58:42.128Z,18.92
2023-05-21T19:01:08.632Z,19.45
2023-05-21T19:03:35.043Z,19.47
2023-05-21T19:06:01.706Z,19.26
2023-05-21T19:08:28.133Z,19.46
2023-05-21T19:10:54.625Z,19.49
2023-05-21T19:13:21.242Z,19.41
2023-05-21T19:15:48.944Z,19.35
2023-05-21T19:18:17.280Z,19.44
2023-05-21T19:20:43.804Z,19.51
2023-05-21T19:23:10.483Z,19.27
2023-05-21T19:25:36.924Z,19.15
2023-05-21T19:28:03.439Z,19.05
2023-05-21T19:30:29.916Z,18.99
2023-05-21T19:32:56.448Z,18.87
2023-05-21T19:35:22.967Z,19.18
2023-05-21T19:37:49.895Z,18.92
2023-05-21T19:40:17.645Z,19.02
2023-05-21T19:42:44.760Z,19.00
2023-05-21T19:45:11.803Z,18.99
2023-05-21T19:47:41.038Z,18.52
2023-05-21T19:50:08.194Z,18.83
2023-05-21T19:52:34.652Z,18.79
2023-05-21T19:55:04.794Z,18.51
2023-05-21T19:57:32.561Z,18.47
2023-05-21T19:59:59.130Z,18.73
2023-05-21T20:02:26.580Z,18.73
2023-05-21T20:04:56.703Z,18.77
2023-05-21T20:07:23.787Z,18.74
2023-05-21T20:09:50.624Z,18.64
2023-05-21T20:12:17.056Z,18.32
2023-05-21T20:14:46.694Z,18.52
2023-05-21T20:17:14.305Z,18.53
2023-05-21T20:19:41.062Z,18.27
2023-05-21T20:22:07.551Z,18.44
2023-05-21T20:24:34.057Z,18.46
2023-05-21T20:27:01.687Z,18.29
2023-05-21T20:29:28.808Z,17.70
2023-05-21T20:31:55.458Z,18.14
2023-05-21T20:34:21.972Z,18.11
2023-05-21T20:36:49.166Z,18.08
2023-05-21T20:39:15.706Z,17.97
2023-05-21T20:41:44.772Z,17.95
2023-05-21T20:44:11.917Z,18.19
2023-05-21T20:46:41.152Z,18.04
2023-05-21T20:49:07.721Z,18.04
2023-05-21T20:51:34.199Z,17.89
2023-05-21T20:54:00.924Z,17.95
2023-05-21T20:56:40.902Z,17.78
2023-05-21T20:59:10.910Z,17.77
2023-05-21T21:01:38.429Z,17.71
2023-05-21T21:04:05.267Z,17.70
2023-05-21T21:06:31.977Z,17.83
2023-05-21T21:08:58.734Z,17.65
2023-05-21T21:11:25.244Z,17.58
2023-05-21T21:13:51.906Z,17.74
2023-05-21T21:16:18.655Z,17.73
2023-05-21T21:18:46.922Z,17.61
2023-05-21T21:21:13.769Z,17.62
2023-05-21T21:23:40.269Z,17.57
2023-05-21T21:26:07.160Z,17.60
2023-05-21T21:28:33.947Z,17.57
2023-05-21T21:31:00.686Z,17.39
2023-05-21T21:33:28.358Z,17.37
2023-05-21T21:35:55.010Z,17.42
2023-05-21T21:38:21.664Z,17.37
2023-05-21T21:40:48.209Z,17.49
2023-05-21T21:43:14.708Z,17.35
2023-05-21T21:45:41.233Z,17.16
2023-05-21T21:48:07.805Z,17.34
2023-05-21T21:50:34.366Z,17.42
2023-05-21T21:53:01.206Z,17.22
2023-05-21T21:55:27.783Z,17.07
2023-05-21T21:57:54.243Z,17.27
2023-05-21T22:00:20.988Z,17.18
2023-05-21T22:02:47.539Z,17.09
2023-05-21T22:05:17.022Z,17.00
2023-05-21T22:07:47.125Z,17.00
2023-05-21T22:10:17.260Z,17.00
2023-05-21T22:12:44.690Z,17.01
2023-05-21T22:15:18.453Z,16.93
2023-05-21T22:17:45.313Z,16.66
2023-05-21T22:20:11.895Z,16.78
2023-05-21T22:22:38.336Z,16.73
2023-05-21T22:25:05.166Z,16.80
2023-05-21T22:27:31.595Z,16.73
2023-05-21T22:29:58.016Z,16.69
2023-05-21T22:32:24.536Z,16.68
2023-05-21T22:34:50.993Z,16.44
2023-05-21T22:37:17.838Z,16.74
2023-05-21T22:39:44.341Z,16.68
2023-05-21T22:42:11.086Z,16.68
2023-05-21T22:44:37.562Z,16.77
2023-05-21T22:47:04.212Z,16.75
2023-05-21T22:49:32.611Z,16.37
2023-05-21T22:52:06.239Z,16.31
2023-05-21T22:54:32.981Z,16.59
2023-05-21T22:57:01.093Z,16.27
2023-05-21T22:59:32.387Z,16.01
2023-05-21T23:01:59.137Z,16.56
2023-05-21T23:04:42.797Z,16.38
2023-05-21T23:07:10.246Z,16.44
2023-05-21T23:09:36.717Z,16.43
2023-05-21T23:12:03.479Z,16.34
2023-05-21T23:14:29.934Z,16.32
2023-05-21T23:17:01.911Z,16.43
2023-05-21T23:19:29.495Z,16.42
2023-05-21T23:21:56.376Z,16.40
2023-05-21T23:24:23.194Z,16.44
2023-05-21T23:26:49.823Z,16.24
2023-05-21T23:29:16.452Z,16.31
2023-05-21T23:31:43.674Z,16.16
2023-05-21T23:34:10.301Z,16.34
2023-05-21T23:36:36.752Z,16.05
2023-05-21T23:39:03.558Z,16.19
2023-05-21T23:41:30.145Z,16.12
2023-05-21T23:43:56.620Z,16.40
2023-05-21T23:46:23.281Z,16.29
2023-05-21T23:48:49.853Z,16.15
2023-05-21T23:51:18.265Z,16.17
2023-05-21T23:53:45.165Z,16.18
2023-05-21T23:56:11.589Z,16.25
2023-05-21T23:58:38.030Z,16.59
